Map

Track Data

SID SEASON NUMBER BASIN SUBBASIN NAME ISO_TIME NATURE LAT LON WMO_WIND WMO_PRES WMO_AGENCY TRACK_TYPE DIST2LAND LANDFALL IFLAG USA_AGENCY USA_ATCF_ID USA_LAT USA_LON USA_RECORD USA_STATUS USA_WIND USA_PRES USA_SSHS USA_R34_NE USA_R34_SE USA_R34_SW USA_R34_NW USA_R50_NE USA_R50_SE USA_R50_SW USA_R50_NW USA_R64_NE USA_R64_SE USA_R64_SW USA_R64_NW USA_POCI USA_ROCI USA_RMW USA_EYE TOKYO_LAT TOKYO_LON TOKYO_GRADE TOKYO_WIND TOKYO_PRES TOKYO_R50_DIR TOKYO_R50_LONG TOKYO_R50_SHORT TOKYO_R30_DIR TOKYO_R30_LONG TOKYO_R30_SHORT TOKYO_LAND CMA_LAT CMA_LON CMA_CAT CMA_WIND CMA_PRES HKO_LAT HKO_LON HKO_CAT HKO_WIND HKO_PRES NEWDELHI_LAT NEWDELHI_LON NEWDELHI_GRADE NEWDELHI_WIND NEWDELHI_PRES NEWDELHI_CI NEWDELHI_DP NEWDELHI_POCI REUNION_LAT REUNION_LON REUNION_TYPE REUNION_WIND REUNION_PRES REUNION_TNUM REUNION_CI REUNION_RMW REUNION_R34_NE REUNION_R34_SE REUNION_R34_SW REUNION_R34_NW REUNION_R50_NE REUNION_R50_SE REUNION_R50_SW REUNION_R50_NW REUNION_R64_NE REUNION_R64_SE REUNION_R64_SW REUNION_R64_NW BOM_LAT BOM_LON BOM_TYPE BOM_WIND BOM_PRES BOM_TNUM BOM_CI BOM_RMW BOM_R34_NE BOM_R34_SE BOM_R34_SW BOM_R34_NW BOM_R50_NE BOM_R50_SE BOM_R50_SW BOM_R50_NW BOM_R64_NE BOM_R64_SE BOM_R64_SW BOM_R64_NW BOM_ROCI BOM_POCI BOM_EYE BOM_POS_METHOD BOM_PRES_METHOD NADI_LAT NADI_LON NADI_CAT NADI_WIND NADI_PRES WELLINGTON_LAT WELLINGTON_LON WELLINGTON_WIND WELLINGTON_PRES DS824_LAT DS824_LON DS824_STAGE DS824_WIND DS824_PRES TD9636_LAT TD9636_LON TD9636_STAGE TD9636_WIND TD9636_PRES TD9635_LAT TD9635_LON TD9635_WIND TD9635_PRES TD9635_ROCI NEUMANN_LAT NEUMANN_LON NEUMANN_CLASS NEUMANN_WIND NEUMANN_PRES MLC_LAT MLC_LON MLC_CLASS MLC_WIND MLC_PRES USA_GUST BOM_GUST BOM_GUST_PER REUNION_GUST REUNION_GUST_PER USA_SEAHGT USA_SEARAD_NE USA_SEARAD_SE USA_SEARAD_SW USA_SEARAD_NW STORM_SPEED STORM_DIR
1916276N27285 1916 55 NA NA NOT_NAMED 1916-10-02 06:00:00 TS 26.5000 -74.6000 40 hurdat_atl main 374 366 O_____________ hurdat_atl AL121916 26.5000 -74.6000 TS 40 0 7 329
1916276N27285 1916 55 NA NA NOT_NAMED 1916-10-02 09:00:00 TS 26.7926 -74.7998 main 371 367 P_____________ AL121916 26.7926 -74.7998 TS 40 0 7 329
1916276N27285 1916 55 NA NA NOT_NAMED 1916-10-02 12:00:00 TS 27.1000 -75.0000 40 hurdat_atl main 373 372 O_____________ hurdat_atl AL121916 27.1000 -75.0000 TS 40 0 7 331
1916276N27285 1916 55 NA NA NOT_NAMED 1916-10-02 15:00:00 TS 27.4350 -75.2001 main 379 379 P_____________ AL121916 27.4350 -75.2001 TS 40 0 8 333
1916276N27285 1916 55 NA NA NOT_NAMED 1916-10-02 18:00:00 TS 27.8000 -75.4000 40 hurdat_atl main 397 397 O_____________ hurdat_atl AL121916 27.8000 -75.4000 TS 40 0 8 335
1916276N27285 1916 55 NA NA NOT_NAMED 1916-10-02 21:00:00 TS 28.1925 -75.6001 main 420 420 P_____________ AL121916 28.1925 -75.6001 TS 42 0 9 336
1916276N27285 1916 55 NA NA NOT_NAMED 1916-10-03 00:00:00 TS 28.6000 -75.8000 45 hurdat_atl main 447 440 O_____________ hurdat_atl AL121916 28.6000 -75.8000 TS 45 0 9 336
1916276N27285 1916 55 NA NA NOT_NAMED 1916-10-03 03:00:00 TS 29.0150 -76.0075 main 441 427 P_____________ AL121916 29.0150 -76.0075 TS 45 0 9 336
1916276N27285 1916 55 NA NA NOT_NAMED 1916-10-03 06:00:00 TS 29.4000 -76.2000 45 hurdat_atl main 429 422 O_____________ hurdat_atl AL121916 29.4000 -76.2000 TS 45 0 8 337
1916276N27285 1916 55 NA NA NOT_NAMED 1916-10-03 09:00:00 TS 29.7225 -76.3577 main 419 418 P_____________ AL121916 29.7225 -76.3577 TS 47 0 7 337
1916276N27285 1916 55 NA NA NOT_NAMED 1916-10-03 12:00:00 TS 30.0000 -76.5000 50 hurdat_atl main 422 409 O_____________ hurdat_atl AL121916 30.0000 -76.5000 TS 50 0 6 335
1916276N27285 1916 55 NA NA NOT_NAMED 1916-10-03 15:00:00 TS 30.2575 -76.6427 main 400 371 P_____________ AL121916 30.2575 -76.6427 TS 50 0 6 332
1916276N27285 1916 55 NA NA NOT_NAMED 1916-10-03 18:00:00 TS 30.5000 -76.8000 50 hurdat_atl main 371 342 O_____________ hurdat_atl AL121916 30.5000 -76.8000 TS 50 0 6 329
1916276N27285 1916 55 NA NA NOT_NAMED 1916-10-03 21:00:00 TS 30.7575 -76.9850 main 333 304 P_____________ AL121916 30.7575 -76.9850 TS 50 0 6 326
1916276N27285 1916 55 NA NA NOT_NAMED 1916-10-04 00:00:00 TS 31.0000 -77.2000 50 hurdat_atl main 304 275 O_____________ hurdat_atl AL121916 31.0000 -77.2000 TS 50 0 6 320
1916276N27285 1916 55 NA NA NOT_NAMED 1916-10-04 03:00:00 TS 31.2149 -77.4276 main 275 239 P_____________ AL121916 31.2149 -77.4276 TS 50 0 6 313
1916276N27285 1916 55 NA NA NOT_NAMED 1916-10-04 06:00:00 TS 31.4000 -77.7000 50 hurdat_atl main 239 210 O_____________ hurdat_atl AL121916 31.4000 -77.7000 TS 50 0 6 309
1916276N27285 1916 55 NA NA NOT_NAMED 1916-10-04 09:00:00 TS 31.5866 -77.9598 main 204 172 P_____________ AL121916 31.5866 -77.9598 TS 50 0 7 297
1916276N27285 1916 55 NA NA NOT_NAMED 1916-10-04 12:00:00 TS 31.7000 -78.4000 50 1000 hurdat_atl main 172 137 O_____________ hurdat_atl AL121916 31.7000 -78.4000 TS 50 1000 0 10 276
1916276N27285 1916 55 NA NA NOT_NAMED 1916-10-04 15:00:00 TS 31.6867 -79.0900 main 131 91 P_____________ AL121916 31.6867 -79.0900 TS 50 0 14 266
1916276N27285 1916 55 NA NA NOT_NAMED 1916-10-04 18:00:00 TS 31.6000 -80.1000 50 hurdat_atl main 82 9 O_____________ hurdat_atl AL121916 31.6000 -80.1000 TS 50 0 20 265
1916276N27285 1916 55 NA NA NOT_NAMED 1916-10-04 21:00:00 TS 31.5000 -81.4000 50 hurdat_atl main 0 0 O_____________ hurdat_atl AL121916 31.5000 -81.4000 L TS 50 0 25 265
1916276N27285 1916 55 NA NA NOT_NAMED 1916-10-05 00:00:00 TS 31.4000 -83.0000 30 hurdat_atl main 0 O_____________ hurdat_atl AL121916 31.4000 -83.0000 TD 30 -1 27 266

About IBTrACS Database

This database is a web-friendly format of International Best Track Archive for Climate Stewardship (IBTrACS), a global best track data archive curated by NOAA dating back to 1842.

Updated: 2021-12-03